Alto Taquari, Brazil
Current Conditions -  °F | °C
As of 4:00 AM on Monday 20 Oct 2014 (Local Time) from SBCG Reporting Station
Scattered Clouds Scattered Clouds  
Wind Chill: 72°   Ceiling: Unl
Heat Index: 72°   Visibility: 6mi
Dew Point: 63°   Wind: 8mph
Humidity: 73%   Direction: 60°ENE
Pressure: 29.91"   Gusts: NA
Location:  17.83°S, 53.28°W
Report Text: SBCG 200800Z 06007KT 9999 FEW045 SCT100 22/17 Q1013
Loading
Personal Weather Stations






























Interactive Weather Map
Tropical Storm Tracking
New forecast layout! Learn more

10-Day Weather Forecast

Advertisements
Track Severe Weather on mobile